Ansted, West Virginia
Current Conditions -  °F | °C
As of 3:51 AM on Wednesday 28 Jan 2015 (Local Time) from KBKW Reporting Station
Light Snow Light Snow  
Wind Chill:   Ceiling: 1700
Heat Index: 16°   Visibility: 6mi
Dew Point: 10°   Wind: 6mph
Humidity: 77%   Direction: 330°NNW
Pressure: 30.11"   Gusts: NA
Location:  38.14°N, 81.1°W
Report Text: KBKW 280851Z AUTO 33005KT 6SM -SN OVC017 M09/M12 A3011 RMK AO2 SLP242 P0000 60000 T10891122 51015
Loading
Personal Weather Stations






























Interactive Weather Map New forecast layout! Learn more

10-Day Weather Forecast

Advertisements
Track Severe Weather on mobile